createdAt,value
2023-02-06T00:00:01.953Z,10.10
2023-02-06T00:03:05.136Z,14.63
2023-02-06T00:06:09.018Z,10.10
2023-02-06T00:09:13.591Z,9.03
2023-02-06T00:12:16.752Z,12.50
2023-02-06T00:15:20.066Z,7.50
2023-02-06T00:18:23.232Z,9.27
2023-02-06T00:21:27.486Z,8.33
2023-02-06T00:24:32.181Z,6.33
2023-02-06T00:27:35.721Z,8.23
2023-02-06T00:30:38.932Z,11.93
2023-02-06T00:33:42.889Z,7.97
2023-02-06T00:36:46.072Z,7.60
2023-02-06T00:39:50.547Z,11.63
2023-02-06T00:42:53.877Z,8.07
2023-02-06T00:45:58.622Z,9.00
2023-02-06T00:49:01.887Z,10.30
2023-02-06T00:52:05.177Z,8.00
2023-02-06T00:55:09.852Z,10.10
2023-02-06T00:58:13.044Z,8.50
2023-02-06T01:01:16.182Z,7.53
2023-02-06T01:04:19.345Z,5.50
2023-02-06T01:07:22.503Z,6.00
2023-02-06T01:10:27.057Z,6.37
2023-02-06T01:13:30.226Z,6.17
2023-02-06T01:16:33.516Z,6.50
2023-02-06T01:19:37.662Z,8.03
2023-02-06T01:22:41.804Z,7.80
2023-02-06T01:25:46.361Z,6.43
2023-02-06T01:28:50.105Z,6.83
2023-02-06T01:31:53.304Z,5.50
2023-02-06T01:34:56.466Z,5.80
2023-02-06T01:37:59.576Z,7.03
2023-02-06T01:41:04.733Z,7.60
2023-02-06T01:44:17.400Z,8.33
2023-02-06T01:47:20.517Z,7.10
2023-02-06T01:50:23.923Z,4.80
2023-02-06T01:53:28.186Z,10.90
2023-02-06T01:56:38.345Z,8.37
2023-02-06T01:59:45.844Z,5.87
2023-02-06T02:02:50.145Z,5.60
2023-02-06T02:05:55.205Z,7.53
2023-02-06T02:08:58.855Z,6.17
2023-02-06T02:12:03.735Z,5.53
2023-02-06T02:15:07.771Z,7.33
2023-02-06T02:18:26.981Z,7.90
2023-02-06T02:21:58.320Z,9.10
2023-02-06T02:25:28.362Z,9.53
2023-02-06T02:29:00.546Z,6.67
2023-02-06T02:32:39.604Z,9.20
2023-02-06T02:35:51.467Z,9.30
2023-02-06T02:39:06.350Z,9.03
2023-02-06T02:42:14.488Z,5.43
2023-02-06T02:45:22.245Z,5.43
2023-02-06T02:48:29.730Z,5.93
2023-02-06T02:51:36.619Z,5.83
2023-02-06T02:54:39.830Z,7.03
2023-02-06T02:57:44.441Z,7.27
2023-02-06T03:00:52.255Z,9.03
2023-02-06T03:03:57.828Z,7.97
2023-02-06T03:07:25.553Z,7.93
2023-02-06T03:10:34.742Z,6.73
2023-02-06T03:13:43.342Z,7.57
2023-02-06T03:16:51.221Z,5.20
2023-02-06T03:19:59.981Z,5.63
2023-02-06T03:23:07.745Z,6.50
2023-02-06T03:26:15.471Z,5.47
2023-02-06T03:29:20.169Z,4.40
2023-02-06T03:32:26.772Z,5.37
2023-02-06T03:35:33.672Z,4.63
2023-02-06T03:38:38.564Z,6.23
2023-02-06T03:41:42.825Z,4.63
2023-02-06T03:44:55.640Z,9.47
2023-02-06T03:48:02.532Z,7.67
2023-02-06T03:51:12.481Z,5.50
2023-02-06T03:54:20.980Z,5.77
2023-02-06T03:57:25.221Z,5.00
2023-02-06T04:00:29.532Z,5.70
2023-02-06T04:03:33.443Z,6.40
2023-02-06T04:06:36.665Z,7.07
2023-02-06T04:09:41.669Z,5.87
2023-02-06T04:12:44.941Z,7.10
2023-02-06T04:15:48.081Z,5.27
2023-02-06T04:18:51.250Z,8.03
2023-02-06T04:21:54.446Z,4.77
2023-02-06T04:24:58.933Z,5.40
2023-02-06T04:28:02.216Z,7.70
2023-02-06T04:31:05.814Z,5.50
2023-02-06T04:34:09.300Z,7.77
2023-02-06T04:37:13.451Z,4.63
2023-02-06T04:40:18.341Z,7.20
2023-02-06T04:43:21.476Z,6.87
2023-02-06T04:46:24.741Z,5.43
2023-02-06T04:49:27.928Z,7.03
2023-02-06T04:52:31.074Z,7.87
2023-02-06T04:55:36.501Z,6.30
2023-02-06T04:58:40.741Z,5.03
2023-02-06T05:01:43.985Z,7.93
2023-02-06T05:04:47.149Z,6.40
2023-02-06T05:07:50.273Z,7.90
2023-02-06T05:10:55.192Z,7.83
2023-02-06T05:13:58.315Z,5.17
2023-02-06T05:17:01.468Z,6.10
2023-02-06T05:20:04.971Z,5.53
2023-02-06T05:23:08.156Z,7.77
2023-02-06T05:26:12.695Z,7.47
2023-02-06T05:29:15.842Z,9.87
2023-02-06T05:32:19.812Z,8.47
2023-02-06T05:35:22.985Z,6.13
2023-02-06T05:38:26.122Z,6.00
2023-02-06T05:41:30.651Z,5.73
2023-02-06T05:44:33.793Z,8.03
2023-02-06T05:47:37.194Z,8.53
2023-02-06T05:50:42.030Z,12.40
2023-02-06T05:53:46.258Z,10.07
2023-02-06T05:56:50.753Z,12.17
2023-02-06T05:59:53.882Z,7.90
2023-02-06T06:02:57.034Z,9.10
2023-02-06T06:06:00.616Z,7.07
2023-02-06T06:09:04.240Z,7.67
2023-02-06T06:12:09.124Z,9.17
2023-02-06T06:15:12.272Z,11.70
2023-02-06T06:18:15.422Z,14.70
2023-02-06T06:21:18.601Z,10.77
2023-02-06T06:24:21.739Z,8.30
2023-02-06T06:27:26.405Z,10.30
2023-02-06T06:30:29.815Z,8.33
2023-02-06T06:33:33.022Z,9.37
2023-02-06T06:36:37.358Z,11.00
2023-02-06T06:39:40.609Z,13.43
2023-02-06T06:42:45.179Z,11.57
2023-02-06T06:45:48.519Z,11.83
2023-02-06T06:48:51.739Z,9.50
2023-02-06T06:51:54.944Z,8.53
2023-02-06T06:54:58.167Z,10.57
2023-02-06T06:58:02.681Z,12.07
2023-02-06T07:01:06.132Z,16.67
2023-02-06T07:04:09.405Z,13.77
2023-02-06T07:07:12.689Z,11.03
2023-02-06T07:10:15.966Z,8.10
2023-02-06T07:13:20.478Z,9.63
2023-02-06T07:16:24.652Z,11.20
2023-02-06T07:19:27.921Z,19.77
2023-02-06T07:22:31.098Z,8.20
2023-02-06T07:25:34.732Z,10.13
2023-02-06T07:28:39.838Z,11.27
2023-02-06T07:31:43.029Z,11.80
2023-02-06T07:34:46.226Z,12.23
2023-02-06T07:37:49.425Z,10.03
2023-02-06T07:40:52.572Z,14.93
2023-02-06T07:43:57.141Z,10.97
2023-02-06T07:47:00.369Z,9.27
2023-02-06T07:50:04.352Z,18.70
2023-02-06T07:53:07.941Z,13.50
2023-02-06T07:56:13.080Z,14.70
2023-02-06T07:59:19.568Z,18.07
2023-02-06T08:02:22.711Z,11.83
2023-02-06T08:05:26.016Z,12.30
2023-02-06T08:08:29.385Z,13.13
2023-02-06T08:11:32.763Z,11.30
2023-02-06T08:14:37.305Z,12.03
2023-02-06T08:17:42.777Z,10.70
2023-02-06T08:20:46.066Z,10.13
2023-02-06T08:23:54.928Z,14.57
2023-02-06T08:26:58.307Z,13.03
2023-02-06T08:30:02.869Z,16.70
2023-02-06T08:33:06.554Z,10.90
2023-02-06T08:36:10.722Z,12.40
2023-02-06T08:39:15.298Z,12.10
2023-02-06T08:42:18.475Z,10.23
2023-02-06T08:45:23.018Z,14.20
2023-02-06T08:48:26.889Z,13.27
2023-02-06T08:51:30.445Z,14.20
2023-02-06T08:54:35.931Z,18.60
2023-02-06T08:57:40.024Z,12.93
2023-02-06T09:00:44.663Z,13.03
2023-02-06T09:03:48.624Z,13.63
2023-02-06T09:06:52.216Z,12.07
2023-02-06T09:09:55.433Z,9.50
2023-02-06T09:12:58.579Z,15.77
2023-02-06T09:16:03.199Z,13.13
2023-02-06T09:19:07.008Z,12.50
2023-02-06T09:22:10.131Z,13.23
2023-02-06T09:25:13.553Z,8.27
2023-02-06T09:28:18.014Z,12.60
2023-02-06T09:31:22.649Z,11.27
2023-02-06T09:34:26.531Z,16.80
2023-02-06T09:37:29.717Z,12.47
2023-02-06T09:40:36.306Z,10.83
2023-02-06T09:43:40.011Z,12.80
2023-02-06T09:46:49.614Z,13.17
2023-02-06T09:49:55.755Z,12.87
2023-02-06T09:53:13.160Z,10.10
2023-02-06T09:56:22.844Z,10.60
2023-02-06T09:59:32.032Z,9.67
2023-02-06T10:03:11.290Z,11.63
2023-02-06T10:06:19.898Z,10.77
2023-02-06T10:09:27.200Z,9.40
2023-02-06T10:12:37.142Z,8.77
2023-02-06T10:15:46.378Z,9.50
2023-02-06T10:18:54.099Z,12.27
2023-02-06T10:22:03.512Z,15.43
2023-02-06T10:25:28.062Z,12.60
2023-02-06T10:28:32.639Z,11.73
2023-02-06T10:31:51.454Z,12.43
2023-02-06T10:35:30.930Z,11.87
2023-02-06T10:38:52.480Z,9.83
2023-02-06T10:42:04.540Z,11.33
2023-02-06T10:45:20.106Z,10.77
2023-02-06T10:48:33.055Z,9.97
2023-02-06T10:51:42.578Z,10.77
2023-02-06T10:54:51.921Z,11.17
2023-02-06T10:58:06.630Z,11.10
2023-02-06T11:01:25.020Z,13.47
2023-02-06T11:04:35.742Z,11.10
2023-02-06T11:07:43.377Z,15.23
2023-02-06T11:10:46.819Z,9.90
2023-02-06T11:13:54.021Z,11.93
2023-02-06T11:17:00.059Z,20.47
2023-02-06T11:20:17.580Z,12.63
2023-02-06T11:23:23.999Z,16.30
2023-02-06T11:26:27.237Z,15.17
2023-02-06T11:29:35.900Z,12.37
2023-02-06T11:32:52.782Z,11.30
2023-02-06T11:36:08.761Z,10.83
2023-02-06T11:39:24.204Z,15.17
2023-02-06T11:42:28.490Z,10.67
2023-02-06T11:45:33.945Z,9.90
2023-02-06T11:48:39.568Z,10.57
2023-02-06T11:51:52.434Z,11.07
2023-02-06T11:55:01.860Z,10.90
2023-02-06T11:58:18.512Z,10.83
2023-02-06T12:01:23.587Z,9.57
2023-02-06T12:04:32.432Z,10.47
2023-02-06T12:07:40.348Z,12.90
2023-02-06T12:10:55.410Z,11.20
2023-02-06T12:14:02.910Z,11.40
2023-02-06T12:17:17.970Z,11.33
2023-02-06T12:20:26.465Z,13.87
2023-02-06T12:23:35.435Z,11.23
2023-02-06T12:26:40.160Z,10.93
2023-02-06T12:29:58.034Z,13.93
2023-02-06T12:33:08.456Z,13.30
2023-02-06T12:36:17.446Z,11.20
2023-02-06T12:39:23.156Z,12.43
2023-02-06T12:42:43.532Z,11.97
2023-02-06T12:45:52.027Z,12.80
2023-02-06T12:48:59.870Z,11.50
2023-02-06T12:52:10.477Z,11.90
2023-02-06T12:55:20.910Z,12.57
2023-02-06T12:58:29.227Z,14.20
2023-02-06T13:01:56.855Z,11.63
2023-02-06T13:05:05.724Z,15.07
2023-02-06T13:08:12.353Z,12.47
2023-02-06T13:11:29.695Z,12.80
2023-02-06T13:14:36.042Z,14.43
2023-02-06T13:17:43.031Z,16.83
2023-02-06T13:21:17.157Z,13.10
2023-02-06T13:24:21.860Z,12.33
2023-02-06T13:27:25.856Z,10.60
2023-02-06T13:30:51.142Z,12.43
2023-02-06T13:33:58.778Z,14.10
2023-02-06T13:37:21.635Z,13.80
2023-02-06T13:40:32.310Z,12.63
2023-02-06T13:43:37.494Z,14.57
2023-02-06T13:47:16.234Z,12.83
2023-02-06T13:50:44.887Z,19.03
2023-02-06T13:54:19.945Z,13.43
2023-02-06T13:57:39.145Z,15.67
2023-02-06T14:00:47.291Z,16.30
2023-02-06T14:03:54.164Z,14.90
2023-02-06T14:07:22.020Z,16.90
2023-02-06T14:11:02.899Z,17.20
2023-02-06T14:14:28.351Z,12.60
2023-02-06T14:17:46.424Z,14.97
2023-02-06T14:21:02.026Z,14.70
2023-02-06T14:24:44.225Z,13.57
2023-02-06T14:27:57.921Z,13.10
2023-02-06T14:31:12.681Z,12.70
2023-02-06T14:34:31.497Z,14.70
2023-02-06T14:37:55.506Z,13.57
2023-02-06T14:41:01.863Z,12.87
2023-02-06T14:44:12.057Z,14.20
2023-02-06T14:47:20.645Z,13.47
2023-02-06T14:50:26.410Z,16.70
2023-02-06T14:53:33.707Z,14.50
2023-02-06T14:56:38.635Z,17.63
2023-02-06T14:59:52.438Z,13.30
2023-02-06T15:03:08.062Z,13.17
2023-02-06T15:06:13.646Z,14.87
2023-02-06T15:09:30.139Z,11.73
2023-02-06T15:12:33.793Z,15.83
2023-02-06T15:15:37.223Z,12.47
2023-02-06T15:18:40.609Z,20.30
2023-02-06T15:21:44.237Z,14.03
2023-02-06T15:25:02.332Z,12.50
2023-02-06T15:28:07.509Z,12.27
2023-02-06T15:31:18.284Z,15.23
2023-02-06T15:34:25.521Z,16.70
2023-02-06T15:37:32.214Z,16.17
2023-02-06T15:40:39.125Z,14.20
2023-02-06T15:43:44.260Z,17.70
2023-02-06T15:46:49.282Z,15.10
2023-02-06T15:49:54.344Z,15.70
2023-02-06T15:52:57.699Z,14.60
2023-02-06T15:56:04.865Z,12.90
2023-02-06T15:59:16.029Z,12.53
2023-02-06T16:02:23.901Z,12.57
2023-02-06T16:05:31.510Z,17.63
2023-02-06T16:08:38.130Z,17.57
2023-02-06T16:11:50.677Z,12.60
2023-02-06T16:14:57.134Z,14.47
2023-02-06T16:18:02.579Z,14.57
2023-02-06T16:21:14.980Z,15.50
2023-02-06T16:24:19.191Z,15.37
2023-02-06T16:27:25.686Z,17.52
2023-02-06T16:30:32.690Z,16.10
2023-02-06T16:33:39.536Z,25.37
2023-02-06T16:36:43.612Z,18.70
2023-02-06T16:39:47.556Z,21.87
2023-02-06T16:42:52.596Z,18.77
2023-02-06T16:45:55.846Z,18.80
2023-02-06T16:49:00.611Z,15.20
2023-02-06T16:52:03.850Z,17.70
2023-02-06T16:55:07.935Z,20.77
2023-02-06T16:58:18.126Z,19.07
2023-02-06T17:01:25.506Z,27.73
2023-02-06T17:04:30.785Z,12.83
2023-02-06T17:07:35.179Z,12.33
2023-02-06T17:10:39.364Z,15.97
2023-02-06T17:13:44.566Z,14.60
2023-02-06T17:16:48.138Z,14.47
2023-02-06T17:19:52.870Z,16.63
2023-02-06T17:22:56.125Z,17.93
2023-02-06T17:25:59.387Z,19.47
2023-02-06T17:29:04.426Z,29.67
2023-02-06T17:32:09.313Z,26.90
2023-02-06T17:35:13.140Z,21.40
2023-02-06T17:38:17.552Z,17.83
2023-02-06T17:41:21.511Z,15.93
2023-02-06T17:44:26.116Z,17.43
2023-02-06T17:47:30.105Z,25.57
2023-02-06T17:50:34.349Z,21.00
2023-02-06T17:53:37.926Z,30.97
2023-02-06T17:56:41.491Z,59.57
2023-02-06T17:59:47.051Z,57.37
2023-02-06T18:02:52.041Z,27.53
2023-02-06T18:06:00.785Z,28.40
2023-02-06T18:09:04.947Z,26.73
2023-02-06T18:12:08.960Z,27.50
2023-02-06T18:15:15.856Z,24.63
2023-02-06T18:18:20.421Z,26.70
2023-02-06T18:21:25.591Z,25.23
2023-02-06T18:24:31.391Z,20.30
2023-02-06T18:27:36.749Z,21.63
2023-02-06T18:30:44.228Z,27.43
2023-02-06T18:33:48.573Z,30.83
2023-02-06T18:36:52.851Z,25.37
2023-02-06T18:39:57.000Z,24.03
2023-02-06T18:43:02.822Z,32.43
2023-02-06T18:46:11.065Z,27.30
2023-02-06T18:49:16.445Z,21.23
2023-02-06T18:52:21.771Z,26.20
2023-02-06T18:55:29.948Z,51.87
2023-02-06T18:58:36.105Z,32.40
2023-02-06T19:01:44.221Z,25.80
2023-02-06T19:04:49.866Z,24.33
2023-02-06T19:07:55.139Z,27.80
2023-02-06T19:11:00.200Z,21.40
2023-02-06T19:14:05.168Z,22.27
2023-02-06T19:17:11.196Z,24.57
2023-02-06T19:20:15.100Z,25.90
2023-02-06T19:23:19.562Z,23.00
2023-02-06T19:26:24.627Z,23.43
2023-02-06T19:29:36.438Z,22.73
2023-02-06T19:32:42.424Z,24.37
2023-02-06T19:35:48.872Z,23.07
2023-02-06T19:38:56.998Z,21.83
2023-02-06T19:42:02.470Z,22.00
2023-02-06T19:45:08.617Z,21.47
2023-02-06T19:48:15.681Z,24.23
2023-02-06T19:51:21.707Z,27.03
2023-02-06T19:54:26.455Z,23.23
2023-02-06T19:57:31.570Z,25.57
2023-02-06T20:00:38.150Z,22.90
2023-02-06T20:03:44.724Z,25.37
2023-02-06T20:06:51.516Z,29.17
2023-02-06T20:09:55.988Z,27.70
2023-02-06T20:13:01.290Z,21.77
2023-02-06T20:16:07.078Z,23.67
2023-02-06T20:19:15.964Z,27.07
2023-02-06T20:22:20.499Z,24.70
2023-02-06T20:25:24.785Z,22.97
2023-02-06T20:28:32.693Z,22.40
2023-02-06T20:31:38.499Z,24.63
2023-02-06T20:34:44.110Z,26.57
2023-02-06T20:37:49.504Z,31.33
2023-02-06T20:40:55.020Z,31.77
2023-02-06T20:43:59.900Z,26.73
2023-02-06T20:47:04.916Z,20.70
2023-02-06T20:50:11.296Z,22.20
2023-02-06T20:53:15.301Z,24.67
2023-02-06T20:56:21.698Z,29.20
2023-02-06T20:59:29.343Z,20.90
2023-02-06T21:02:34.132Z,22.77
2023-02-06T21:05:39.522Z,24.00
2023-02-06T21:08:43.783Z,22.00
2023-02-06T21:11:50.658Z,26.93
2023-02-06T21:14:54.083Z,23.07
2023-02-06T21:17:58.502Z,21.50
2023-02-06T21:21:09.771Z,24.30
2023-02-06T21:24:13.557Z,32.07
2023-02-06T21:27:17.043Z,26.20
2023-02-06T21:30:20.462Z,23.80
2023-02-06T21:33:23.823Z,26.23
2023-02-06T21:36:29.554Z,23.80
2023-02-06T21:39:33.139Z,23.03
2023-02-06T21:42:36.351Z,24.20
2023-02-06T21:45:40.130Z,21.50
2023-02-06T21:48:43.687Z,20.83
2023-02-06T21:51:48.254Z,18.30
2023-02-06T21:54:51.475Z,26.23
2023-02-06T21:57:54.624Z,20.37
2023-02-06T22:00:58.211Z,20.77
2023-02-06T22:04:02.037Z,19.57
2023-02-06T22:07:08.304Z,24.63
2023-02-06T22:10:11.896Z,20.07
2023-02-06T22:13:15.064Z,24.67
2023-02-06T22:16:20.890Z,26.30
2023-02-06T22:19:24.077Z,24.23
2023-02-06T22:22:28.692Z,24.00
2023-02-06T22:25:31.871Z,24.97
2023-02-06T22:28:35.279Z,24.30
2023-02-06T22:31:40.370Z,21.20
2023-02-06T22:34:43.560Z,24.00
2023-02-06T22:37:48.277Z,30.73
2023-02-06T22:40:59.363Z,25.20
2023-02-06T22:44:02.813Z,26.13
2023-02-06T22:47:06.016Z,23.20
2023-02-06T22:50:09.621Z,23.60
2023-02-06T22:53:32.355Z,26.97
2023-02-06T22:56:37.275Z,21.30
2023-02-06T22:59:40.596Z,24.30
2023-02-06T23:02:43.956Z,24.70
2023-02-06T23:05:47.058Z,22.70
2023-02-06T23:08:52.202Z,24.87
2023-02-06T23:11:58.176Z,23.70
2023-02-06T23:15:01.339Z,20.20
2023-02-06T23:18:04.572Z,22.77
2023-02-06T23:21:10.837Z,20.70
2023-02-06T23:24:15.996Z,24.20
2023-02-06T23:27:19.749Z,22.60
2023-02-06T23:30:22.954Z,19.77
2023-02-06T23:33:26.181Z,22.40
2023-02-06T23:36:30.116Z,26.07
2023-02-06T23:39:34.640Z,20.93
2023-02-06T23:42:37.853Z,24.93
2023-02-06T23:45:41.492Z,24.00
2023-02-06T23:48:44.858Z,25.20
2023-02-06T23:51:47.957Z,21.77
2023-02-06T23:54:52.479Z,26.10
2023-02-06T23:57:55.807Z,20.57
